Princeville, Illinois
Current Conditions -  °F | °C
As of 4:54 PM on Tuesday 27 Jan 2015 (Local Time) from KPIA Reporting Station
Overcast Overcast  
Wind Chill: 32°   Ceiling: 1500
Heat Index: 32°   Visibility: 8mi
Dew Point: 25°   Wind: 3mph
Humidity: 75%   Direction: 30°NNE
Pressure: 30.24"   Gusts: NA
Location:  40.93°N, 89.76°W
Report Text: KPIA 272254Z 03003KT 8SM OVC015 00/M04 A3024 RMK AO2 SLP246 T00001039
Loading
Personal Weather Stations






























Interactive Weather Map New forecast layout! Learn more

10-Day Weather Forecast

Advertisements
Track Severe Weather on mobile